Terminal Aerodrome Forecast
Issued by NWS

Home | Current Version | Previous Version | Graphics & Text | Print | Product List | Glossary On
Versions: 1 2 3 4 5 6 7 8 9 10 11 12 13 14 15 16
000
FTUS43 KLSX 042000 AAA
TAFSUS
TAF AMD
KSUS 042058Z 0421/0518 23008KT P6SM FEW050 SCT150 BKN250
     FM050000 17004KT P6SM SCT150 BKN250
     FM051500 21007KT P6SM FEW050 SCT150 BKN250=

USA.gov is the U.S. government's official web portal to all federal, state and local government web resources and services.